Hallettsville, Texas
Current Conditions -  °F | °C
As of 11:15 AM on Saturday 20 Dec 2014 (Local Time) from K66R Reporting Station
Overcast Overcast  
Wind Chill: 53°   Ceiling: 1100
Heat Index: 53°   Visibility: 10mi
Dew Point: 49°   Wind: 8mph
Humidity: 85%   Direction: 350°N
Pressure: 30.22"   Gusts: NA
Location:  29.44°N, 96.94°W
Report Text: K66R 201715Z AUTO 35007KT 10SM OVC011 12/09 A3022 RMK AO2 T01170093
Loading
Personal Weather Stations






























Interactive Weather Map New forecast layout! Learn more

10-Day Weather Forecast

Advertisements
Track Severe Weather on mobile